Aérodrome :
LOGIN :

S'inscrire | Disclaimer

   EN    FR    IT 

 










Légende :    VFR   VFR Marginal   IFR   IFR Intensif   IFR Très Intensif
Visi : 
Plafond : 
>= 8 km
>= 3000ft
5 à 8 km
1000 à 3000 ft
1500m à 5 km
500 à 1000 ft
800 à 1500m
200 à 500 ft
< 800m
< 200 ft
Symboles :   Orages  Brouillard  Fortes neiges  Fortes précipitations  Vent > 20 kt
SIGMETs :   Divers  Orages  Givrage  Turbulence  Onde Orograph.  Cendres Volcan.







- Altitude de l'aérodrome : 38 ft
- Code IATA : BOH
- Voir les cartes d'approche


EGHH - Bournemouth

DERNIER METAR :
  • 181420Z 12006KT 090V150 8000 -RA SCT014 BKN043 16/14 Q1012

METARs EXPIRÉS :
  • 181350Z 14005KT 100V180 9999 -RA SCT014 BKN043 16/14 Q1013
  • 181320Z 07005KT 9999 FEW011 SCT042 17/14 Q1013
  • 181250Z 08006KT 9999 FEW011 SCT032 17/14 Q1013
  • 181220Z 06005KT 9999 SCT013 SCT032 17/14 Q1013
  • 181150Z 05005KT 9999 SCT013 SCT025 16/14 Q1013

TAF TAF EGHH
Valide du 18 à 15h jusqu'au 19 à 00h UTC


181401Z 1815/1824 05005KT 9999 SCT030
TEMPO 1815/1818 6000 RA SHRA BKN014
PROB30
TEMPO 1815/1818 3000 +SHRA BKN009
PROB30
TEMPO 1818/1824 8000 RA
ATIS : +44 1202 364 151
Météo : +44 1202 364 158 (TAF)
Pas de NOTAMs connus pour ce terrain.



MET'MAP, la Météo Aéronautique d'un coup d'oeil ! - Copyright ORBIFLY Décembre 2007 - Disclaimer

ORBIFLY MET'MAP TEAM :

Programmation & Développement : Alexandra Zaïnal
Conception & Développement : Baudouin d'Aumeries
Co-Programmation & Développement : Marc-Olivier Méhu
Soutien technique & logistique : Manuel Goepfert

Contact : metmap@orbifly.com




SOURCES & CREDITS :

   NOAA